sensor_id;sensor_type;location;lat;lon;timestamp;pressure;altitude;pressure_sealevel;temperature;humidity
35553;BME280;21656;46.054;13.614;2023-02-10T07:33:58;102686.22;;;-2.08;89.13
35553;BME280;21656;46.054;13.614;2023-02-10T07:36:24;102683.72;;;-1.93;87.68
35553;BME280;21656;46.054;13.614;2023-02-10T07:38:50;102686.47;;;-1.79;86.98
35553;BME280;21656;46.054;13.614;2023-02-10T07:41:15;102691.78;;;-1.70;87.25
35553;BME280;21656;46.054;13.614;2023-02-10T07:43:40;102689.25;;;-1.56;86.30
35553;BME280;21656;46.054;13.614;2023-02-10T07:46:06;102691.06;;;-1.40;83.87
35553;BME280;21656;46.054;13.614;2023-02-10T07:48:31;102685.91;;;-1.18;80.45
35553;BME280;21656;46.054;13.614;2023-02-10T07:50:56;102681.56;;;-0.92;78.64
35553;BME280;21656;46.054;13.614;2023-02-10T07:53:23;102681.63;;;-0.81;77.35
35553;BME280;21656;46.054;13.614;2023-02-10T07:55:48;102678.09;;;-0.72;77.10
35553;BME280;21656;46.054;13.614;2023-02-10T07:58:14;102684.28;;;-0.72;76.76
35553;BME280;21656;46.054;13.614;2023-02-10T08:00:40;102680.81;;;-0.41;74.59
35553;BME280;21656;46.054;13.614;2023-02-10T08:03:05;102680.81;;;-0.32;72.39
35553;BME280;21656;46.054;13.614;2023-02-10T08:05:31;102689.63;;;-0.16;70.46
35553;BME280;21656;46.054;13.614;2023-02-10T08:07:56;102692.28;;;-0.04;69.37
35553;BME280;21656;46.054;13.614;2023-02-10T08:10:22;102694.06;;;0.15;69.03
35553;BME280;21656;46.054;13.614;2023-02-10T08:12:47;102701.97;;;0.32;67.76
35553;BME280;21656;46.054;13.614;2023-02-10T08:15:13;102697.47;;;0.57;66.58
35553;BME280;21656;46.054;13.614;2023-02-10T08:17:42;102696.53;;;0.78;63.66
35553;BME280;21656;46.054;13.614;2023-02-10T08:20:08;102703.56;;;0.96;62.91
35553;BME280;21656;46.054;13.614;2023-02-10T08:22:34;102692.84;;;1.08;61.55
35553;BME280;21656;46.054;13.614;2023-02-10T08:24:59;102688.31;;;1.29;61.23
35553;BME280;21656;46.054;13.614;2023-02-10T08:27:25;102692.69;;;1.42;60.50
35553;BME280;21656;46.054;13.614;2023-02-10T08:29:50;102691.69;;;1.54;59.33
35553;BME280;21656;46.054;13.614;2023-02-10T08:32:16;102687.19;;;1.68;59.54
35553;BME280;21656;46.054;13.614;2023-02-10T08:34:48;102684.47;;;1.74;59.03
35553;BME280;21656;46.054;13.614;2023-02-10T08:37:14;102686.13;;;1.92;58.01
35553;BME280;21656;46.054;13.614;2023-02-10T08:39:40;102683.31;;;2.08;56.92
35553;BME280;21656;46.054;13.614;2023-02-10T08:42:06;102681.31;;;2.30;56.70
35553;BME280;21656;46.054;13.614;2023-02-10T08:44:32;102675.00;;;2.40;55.54
35553;BME280;21656;46.054;13.614;2023-02-10T08:46:57;102675.81;;;2.45;55.13
35553;BME280;21656;46.054;13.614;2023-02-10T08:49:23;102681.06;;;2.54;55.05
35553;BME280;21656;46.054;13.614;2023-02-10T08:51:51;102670.13;;;2.79;54.67
35553;BME280;21656;46.054;13.614;2023-02-10T08:54:17;102668.03;;;3.01;53.56
35553;BME280;21656;46.054;13.614;2023-02-10T08:56:42;102662.50;;;3.18;53.46
35553;BME280;21656;46.054;13.614;2023-02-10T08:59:08;102668.63;;;3.24;52.04
35553;BME280;21656;46.054;13.614;2023-02-10T09:01:33;102673.06;;;3.24;52.13
35553;BME280;21656;46.054;13.614;2023-02-10T09:03:59;102665.63;;;3.46;51.46
35553;BME280;21656;46.054;13.614;2023-02-10T09:06:28;102660.97;;;3.60;50.75
35553;BME280;21656;46.054;13.614;2023-02-10T09:08:55;102667.00;;;3.73;49.67
35553;BME280;21656;46.054;13.614;2023-02-10T09:11:22;102664.41;;;3.68;50.16
35553;BME280;21656;46.054;13.614;2023-02-10T09:13:49;102660.75;;;3.74;49.55
35553;BME280;21656;46.054;13.614;2023-02-10T09:16:15;102667.47;;;3.97;49.22
35553;BME280;21656;46.054;13.614;2023-02-10T09:18:40;102662.72;;;4.16;48.53
35553;BME280;21656;46.054;13.614;2023-02-10T09:21:06;102661.44;;;4.35;48.55
35553;BME280;21656;46.054;13.614;2023-02-10T09:23:31;102664.25;;;4.27;48.25
35553;BME280;21656;46.054;13.614;2023-02-10T09:25:58;102673.91;;;4.34;48.01
35553;BME280;21656;46.054;13.614;2023-02-10T09:28:25;102667.56;;;4.40;47.49
35553;BME280;21656;46.054;13.614;2023-02-10T09:30:50;102669.56;;;4.30;47.82
35553;BME280;21656;46.054;13.614;2023-02-10T09:33:16;102663.97;;;4.43;47.52
35553;BME280;21656;46.054;13.614;2023-02-10T09:35:42;102662.78;;;4.57;47.36
35553;BME280;21656;46.054;13.614;2023-02-10T09:38:12;102660.75;;;4.70;46.91
35553;BME280;21656;46.054;13.614;2023-02-10T09:52:06;102674.72;;;5.24;44.35
35553;BME280;21656;46.054;13.614;2023-02-10T09:54:38;102681.03;;;5.21;44.04
35553;BME280;21656;46.054;13.614;2023-02-10T09:57:08;102685.47;;;5.22;43.92
35553;BME280;21656;46.054;13.614;2023-02-10T09:59:37;102677.91;;;5.41;45.11
35553;BME280;21656;46.054;13.614;2023-02-10T10:02:19;102681.06;;;5.58;44.35
35553;BME280;21656;46.054;13.614;2023-02-10T10:04:47;102674.75;;;5.62;43.04
35553;BME280;21656;46.054;13.614;2023-02-10T10:07:19;102674.00;;;5.92;43.33
35553;BME280;21656;46.054;13.614;2023-02-10T10:09:54;102678.91;;;6.10;42.85
35553;BME280;21656;46.054;13.614;2023-02-10T10:12:22;102675.97;;;6.21;41.76
35553;BME280;21656;46.054;13.614;2023-02-10T10:14:47;102675.78;;;6.27;42.11
35553;BME280;21656;46.054;13.614;2023-02-10T10:20:39;102674.63;;;6.37;40.83
35553;BME280;21656;46.054;13.614;2023-02-10T10:31:44;102655.41;;;6.85;39.00
35553;BME280;21656;46.054;13.614;2023-02-10T10:34:15;102649.44;;;7.05;39.23
35553;BME280;21656;46.054;13.614;2023-02-10T10:36:48;102651.41;;;7.28;38.75
35553;BME280;21656;46.054;13.614;2023-02-10T10:39:35;102644.91;;;7.37;38.83
35553;BME280;21656;46.054;13.614;2023-02-10T10:42:21;102636.16;;;7.30;38.01
35553;BME280;21656;46.054;13.614;2023-02-10T10:44:51;102626.06;;;7.38;38.30
35553;BME280;21656;46.054;13.614;2023-02-10T10:50:01;102618.25;;;7.86;37.21
35553;BME280;21656;46.054;13.614;2023-02-10T10:52:32;102614.22;;;7.99;36.79
35553;BME280;21656;46.054;13.614;2023-02-10T10:55:02;102605.94;;;8.05;36.32
35553;BME280;21656;46.054;13.614;2023-02-10T10:57:28;102603.41;;;8.51;35.50
35553;BME280;21656;46.054;13.614;2023-02-10T11:02:30;102598.78;;;8.79;34.28
35553;BME280;21656;46.054;13.614;2023-02-10T11:05:11;102600.69;;;8.99;35.14
35553;BME280;21656;46.054;13.614;2023-02-10T11:07:39;102595.81;;;9.31;34.33
35553;BME280;21656;46.054;13.614;2023-02-10T11:10:07;102600.41;;;9.49;33.44
35553;BME280;21656;46.054;13.614;2023-02-10T11:12:45;102587.88;;;9.28;32.83
35553;BME280;21656;46.054;13.614;2023-02-10T11:17:49;102598.47;;;9.75;32.95
35553;BME280;21656;46.054;13.614;2023-02-10T11:22:42;102591.41;;;10.13;32.14
35553;BME280;21656;46.054;13.614;2023-02-10T11:25:34;102587.78;;;10.35;31.69
35553;BME280;21656;46.054;13.614;2023-02-10T11:28:01;102583.81;;;10.62;31.86
35553;BME280;21656;46.054;13.614;2023-02-10T11:30:28;102579.28;;;10.63;31.04
35553;BME280;21656;46.054;13.614;2023-02-10T11:32:55;102566.56;;;10.85;31.68
35553;BME280;21656;46.054;13.614;2023-02-10T11:35:22;102571.69;;;10.92;30.83
35553;BME280;21656;46.054;13.614;2023-02-10T11:37:57;102569.97;;;11.27;30.46
35553;BME280;21656;46.054;13.614;2023-02-10T11:40:29;102570.66;;;11.31;29.76
35553;BME280;21656;46.054;13.614;2023-02-10T11:42:58;102568.78;;;11.33;29.80
35553;BME280;21656;46.054;13.614;2023-02-10T11:45:29;102568.53;;;11.37;29.63
35553;BME280;21656;46.054;13.614;2023-02-10T11:48:18;102558.41;;;11.42;29.83
35553;BME280;21656;46.054;13.614;2023-02-10T11:50:44;102553.72;;;11.81;29.72
35553;BME280;21656;46.054;13.614;2023-02-10T11:53:23;102555.41;;;11.83;28.98
35553;BME280;21656;46.054;13.614;2023-02-10T12:01:46;102561.22;;;12.10;29.09
35553;BME280;21656;46.054;13.614;2023-02-10T12:09:52;102544.22;;;12.73;27.71
35553;BME280;21656;46.054;13.614;2023-02-10T12:17:52;102539.25;;;13.45;27.27
35553;BME280;21656;46.054;13.614;2023-02-10T12:25:26;102528.16;;;13.34;27.11
35553;BME280;21656;46.054;13.614;2023-02-10T12:41:29;102515.69;;;13.61;27.23
35553;BME280;21656;46.054;13.614;2023-02-10T12:52:23;102497.41;;;13.51;26.59
35553;BME280;21656;46.054;13.614;2023-02-10T12:55:00;102505.28;;;13.70;27.54
35553;BME280;21656;46.054;13.614;2023-02-10T12:57:50;102500.56;;;13.73;26.30
35553;BME280;21656;46.054;13.614;2023-02-10T13:05:32;102509.88;;;13.98;25.56
35553;BME280;21656;46.054;13.614;2023-02-10T13:08:02;102506.28;;;13.83;26.31
35553;BME280;21656;46.054;13.614;2023-02-10T13:13:14;102501.44;;;13.74;26.15
35553;BME280;21656;46.054;13.614;2023-02-10T13:15:45;102507.00;;;13.56;25.57
35553;BME280;21656;46.054;13.614;2023-02-10T13:18:20;102504.63;;;13.20;25.84
35553;BME280;21656;46.054;13.614;2023-02-10T13:36:43;102500.34;;;12.21;28.01
35553;BME280;21656;46.054;13.614;2023-02-10T13:39:19;102498.75;;;12.17;27.29
35553;BME280;21656;46.054;13.614;2023-02-10T13:41:48;102497.72;;;11.84;28.31
35553;BME280;21656;46.054;13.614;2023-02-10T13:44:25;102487.84;;;11.67;27.96
35553;BME280;21656;46.054;13.614;2023-02-10T13:50:04;102484.03;;;11.54;28.57
35553;BME280;21656;46.054;13.614;2023-02-10T13:52:33;102485.44;;;11.26;28.51
35553;BME280;21656;46.054;13.614;2023-02-10T13:57:37;102475.06;;;10.82;28.97
35553;BME280;21656;46.054;13.614;2023-02-10T14:00:18;102477.88;;;10.62;29.01
35553;BME280;21656;46.054;13.614;2023-02-10T14:02:56;102480.69;;;10.40;30.32
35553;BME280;21656;46.054;13.614;2023-02-10T14:05:23;102482.88;;;10.32;30.30
35553;BME280;21656;46.054;13.614;2023-02-10T14:07:49;102479.75;;;10.02;29.52
35553;BME280;21656;46.054;13.614;2023-02-10T14:12:56;102486.81;;;9.65;30.66
35553;BME280;21656;46.054;13.614;2023-02-10T14:15:25;102481.06;;;9.52;31.07
35553;BME280;21656;46.054;13.614;2023-02-10T14:17:58;102472.66;;;9.39;31.09
35553;BME280;21656;46.054;13.614;2023-02-10T14:20:28;102479.00;;;9.38;31.19
35553;BME280;21656;46.054;13.614;2023-02-10T14:22:57;102484.09;;;9.44;31.02
35553;BME280;21656;46.054;13.614;2023-02-10T14:27:54;102489.66;;;9.19;31.29
35553;BME280;21656;46.054;13.614;2023-02-10T14:30:40;102494.78;;;9.03;30.80
35553;BME280;21656;46.054;13.614;2023-02-10T14:33:34;102482.97;;;8.85;31.85
35553;BME280;21656;46.054;13.614;2023-02-10T14:36:03;102493.00;;;8.82;32.16
35553;BME280;21656;46.054;13.614;2023-02-10T14:38:31;102489.16;;;8.65;32.10
35553;BME280;21656;46.054;13.614;2023-02-10T14:40:58;102492.75;;;8.66;32.91
35553;BME280;21656;46.054;13.614;2023-02-10T14:43:27;102500.84;;;8.64;31.80
35553;BME280;21656;46.054;13.614;2023-02-10T14:45:53;102491.31;;;8.56;32.65
35553;BME280;21656;46.054;13.614;2023-02-10T14:48:21;102476.97;;;8.33;32.73
35553;BME280;21656;46.054;13.614;2023-02-10T14:51:01;102487.19;;;8.47;32.54
35553;BME280;21656;46.054;13.614;2023-02-10T14:53:27;102481.34;;;8.36;32.36
35553;BME280;21656;46.054;13.614;2023-02-10T14:56:00;102485.25;;;8.27;32.54
35553;BME280;21656;46.054;13.614;2023-02-10T14:58:27;102488.78;;;8.28;32.66
35553;BME280;21656;46.054;13.614;2023-02-10T15:03:33;102483.69;;;8.21;33.16
35553;BME280;21656;46.054;13.614;2023-02-10T15:05:59;102477.72;;;8.13;33.09
35553;BME280;21656;46.054;13.614;2023-02-10T15:08:32;102488.84;;;8.02;33.27
35553;BME280;21656;46.054;13.614;2023-02-10T15:11:02;102481.84;;;7.98;33.88
35553;BME280;21656;46.054;13.614;2023-02-10T15:13:40;102479.38;;;7.92;33.33
35553;BME280;21656;46.054;13.614;2023-02-10T15:16:10;102484.94;;;7.88;34.03
35553;BME280;21656;46.054;13.614;2023-02-10T15:18:45;102476.00;;;7.87;33.78
35553;BME280;21656;46.054;13.614;2023-02-10T15:21:30;102495.13;;;7.78;33.37
35553;BME280;21656;46.054;13.614;2023-02-10T15:23:58;102478.38;;;7.71;33.75
35553;BME280;21656;46.054;13.614;2023-02-10T15:26:25;102488.38;;;7.66;33.85
35553;BME280;21656;46.054;13.614;2023-02-10T15:29:14;102487.41;;;7.69;33.59
35553;BME280;21656;46.054;13.614;2023-02-10T15:31:50;102487.94;;;7.53;34.17
35553;BME280;21656;46.054;13.614;2023-02-10T15:34:32;102484.66;;;7.45;34.69
35553;BME280;21656;46.054;13.614;2023-02-10T15:37:04;102491.91;;;7.42;34.15
35553;BME280;21656;46.054;13.614;2023-02-10T15:39:34;102500.31;;;7.32;34.56
35553;BME280;21656;46.054;13.614;2023-02-10T15:44:39;102496.63;;;7.08;35.15
35553;BME280;21656;46.054;13.614;2023-02-10T15:47:38;102504.00;;;7.02;35.90
35553;BME280;21656;46.054;13.614;2023-02-10T15:50:10;102512.38;;;6.91;35.79
35553;BME280;21656;46.054;13.614;2023-02-10T15:52:43;102515.34;;;6.82;37.30
35553;BME280;21656;46.054;13.614;2023-02-10T15:55:29;102509.78;;;6.60;37.68
35553;BME280;21656;46.054;13.614;2023-02-10T15:57:55;102517.28;;;6.48;37.98
35553;BME280;21656;46.054;13.614;2023-02-10T16:00:30;102515.00;;;6.35;38.55
35553;BME280;21656;46.054;13.614;2023-02-10T16:02:56;102513.66;;;6.20;38.92
35553;BME280;21656;46.054;13.614;2023-02-10T16:05:22;102526.78;;;5.98;39.57
35553;BME280;21656;46.054;13.614;2023-02-10T16:07:48;102525.25;;;5.88;40.48
35553;BME280;21656;46.054;13.614;2023-02-10T16:10:17;102526.69;;;5.67;41.50
35553;BME280;21656;46.054;13.614;2023-02-10T16:12:44;102532.44;;;5.51;41.99
35553;BME280;21656;46.054;13.614;2023-02-10T16:15:14;102529.94;;;5.45;41.74
35553;BME280;21656;46.054;13.614;2023-02-10T16:17:43;102533.00;;;5.30;41.62
35553;BME280;21656;46.054;13.614;2023-02-10T16:20:35;102537.72;;;5.18;42.70
35553;BME280;21656;46.054;13.614;2023-02-10T16:23:00;102548.69;;;5.06;43.61
35553;BME280;21656;46.054;13.614;2023-02-10T16:25:27;102545.59;;;4.87;43.29
35553;BME280;21656;46.054;13.614;2023-02-10T16:27:53;102546.91;;;4.68;44.02
35553;BME280;21656;46.054;13.614;2023-02-10T16:30:23;102550.31;;;4.74;44.13
35553;BME280;21656;46.054;13.614;2023-02-10T16:32:49;102560.94;;;4.76;44.33
35553;BME280;21656;46.054;13.614;2023-02-10T16:35:16;102563.78;;;4.68;44.20
35553;BME280;21656;46.054;13.614;2023-02-10T16:37:42;102569.28;;;4.62;44.04
35553;BME280;21656;46.054;13.614;2023-02-10T16:40:14;102562.91;;;4.68;44.27
35553;BME280;21656;46.054;13.614;2023-02-10T16:42:42;102571.84;;;4.67;43.00
35553;BME280;21656;46.054;13.614;2023-02-10T16:45:08;102566.53;;;4.65;43.30
35553;BME280;21656;46.054;13.614;2023-02-10T16:47:34;102567.56;;;4.60;44.72
35553;BME280;21656;46.054;13.614;2023-02-10T16:50:00;102576.97;;;4.36;44.95
35553;BME280;21656;46.054;13.614;2023-02-10T16:52:25;102586.03;;;4.25;44.80
35553;BME280;21656;46.054;13.614;2023-02-10T16:54:50;102583.44;;;4.22;45.53
35553;BME280;21656;46.054;13.614;2023-02-10T16:57:17;102594.31;;;4.13;45.85
35553;BME280;21656;46.054;13.614;2023-02-10T16:59:42;102589.06;;;4.08;45.96
35553;BME280;21656;46.054;13.614;2023-02-10T17:02:09;102587.41;;;4.03;45.36
35553;BME280;21656;46.054;13.614;2023-02-10T17:04:34;102596.31;;;4.00;45.34
35553;BME280;21656;46.054;13.614;2023-02-10T17:07:00;102599.88;;;4.01;45.75
35553;BME280;21656;46.054;13.614;2023-02-10T17:09:27;102593.69;;;3.97;46.58
35553;BME280;21656;46.054;13.614;2023-02-10T17:11:52;102596.69;;;3.79;46.81
35553;BME280;21656;46.054;13.614;2023-02-10T17:14:18;102597.22;;;3.48;48.13
35553;BME280;21656;46.054;13.614;2023-02-10T17:16:45;102596.50;;;3.38;48.39
35553;BME280;21656;46.054;13.614;2023-02-10T17:19:13;102600.31;;;3.20;48.87
35553;BME280;21656;46.054;13.614;2023-02-10T17:21:39;102602.16;;;3.17;49.39
35553;BME280;21656;46.054;13.614;2023-02-10T17:24:05;102600.56;;;3.05;49.74
35553;BME280;21656;46.054;13.614;2023-02-10T17:26:30;102603.31;;;2.99;49.45
35553;BME280;21656;46.054;13.614;2023-02-10T17:28:55;102604.09;;;3.06;49.23
35553;BME280;21656;46.054;13.614;2023-02-10T17:31:22;102605.28;;;2.83;49.80
35553;BME280;21656;46.054;13.614;2023-02-10T17:33:48;102615.97;;;2.81;50.29
35553;BME280;21656;46.054;13.614;2023-02-10T17:36:33;102612.41;;;2.84;50.40
35553;BME280;21656;46.054;13.614;2023-02-10T17:38:58;102614.41;;;2.67;51.07
35553;BME280;21656;46.054;13.614;2023-02-10T17:41:29;102617.09;;;2.64;51.17
35553;BME280;21656;46.054;13.614;2023-02-10T17:43:56;102618.00;;;2.63;51.26
35553;BME280;21656;46.054;13.614;2023-02-10T17:46:22;102627.84;;;2.54;51.26
35553;BME280;21656;46.054;13.614;2023-02-10T17:48:48;102625.31;;;2.44;51.28
35553;BME280;21656;46.054;13.614;2023-02-10T17:51:22;102640.41;;;2.40;51.66
35553;BME280;21656;46.054;13.614;2023-02-10T17:53:49;102636.84;;;2.43;51.56
35553;BME280;21656;46.054;13.614;2023-02-10T17:56:16;102641.41;;;2.31;51.79
35553;BME280;21656;46.054;13.614;2023-02-10T17:58:42;102634.31;;;2.33;51.77
35553;BME280;21656;46.054;13.614;2023-02-10T18:01:18;102651.06;;;2.40;51.67
35553;BME280;21656;46.054;13.614;2023-02-10T18:03:44;102646.66;;;2.39;51.58
35553;BME280;21656;46.054;13.614;2023-02-10T18:06:09;102645.88;;;2.28;51.61
35553;BME280;21656;46.054;13.614;2023-02-10T18:08:40;102649.34;;;2.33;51.76
35553;BME280;21656;46.054;13.614;2023-02-10T18:11:05;102645.00;;;2.27;52.13
35553;BME280;21656;46.054;13.614;2023-02-10T18:13:32;102658.13;;;2.43;52.48
35553;BME280;21656;46.054;13.614;2023-02-10T18:15:57;102650.19;;;2.39;51.77
35553;BME280;21656;46.054;13.614;2023-02-10T18:18:23;102655.44;;;2.46;51.87
35553;BME280;21656;46.054;13.614;2023-02-10T18:20:48;102650.97;;;2.48;52.23
35553;BME280;21656;46.054;13.614;2023-02-10T18:23:14;102656.25;;;2.52;51.83
35553;BME280;21656;46.054;13.614;2023-02-10T18:25:39;102650.09;;;2.49;52.80
35553;BME280;21656;46.054;13.614;2023-02-10T18:28:06;102650.19;;;2.39;52.30
35553;BME280;21656;46.054;13.614;2023-02-10T18:30:32;102651.97;;;2.41;52.54
35553;BME280;21656;46.054;13.614;2023-02-10T18:32:57;102641.25;;;2.47;51.53
35553;BME280;21656;46.054;13.614;2023-02-10T18:35:23;102650.22;;;2.35;52.21
35553;BME280;21656;46.054;13.614;2023-02-10T18:37:49;102647.47;;;2.44;51.25
35553;BME280;21656;46.054;13.614;2023-02-10T18:40:14;102641.19;;;2.50;51.22
35553;BME280;21656;46.054;13.614;2023-02-10T18:42:39;102643.81;;;2.56;50.50
35553;BME280;21656;46.054;13.614;2023-02-10T18:45:05;102632.22;;;2.60;50.55
35553;BME280;21656;46.054;13.614;2023-02-10T18:47:31;102636.56;;;2.69;49.68
35553;BME280;21656;46.054;13.614;2023-02-10T18:49:56;102635.16;;;3.05;48.06
35553;BME280;21656;46.054;13.614;2023-02-10T18:52:22;102627.78;;;3.25;47.09
35553;BME280;21656;46.054;13.614;2023-02-10T18:54:47;102633.72;;;3.44;47.02
35553;BME280;21656;46.054;13.614;2023-02-10T18:57:12;102633.22;;;3.75;45.18
35553;BME280;21656;46.054;13.614;2023-02-10T18:59:38;102632.66;;;4.06;43.94
35553;BME280;21656;46.054;13.614;2023-02-10T19:02:04;102638.59;;;4.20;44.21
35553;BME280;21656;46.054;13.614;2023-02-10T19:04:30;102639.38;;;4.27;43.79
35553;BME280;21656;46.054;13.614;2023-02-10T19:06:55;102625.66;;;4.45;43.21
35553;BME280;21656;46.054;13.614;2023-02-10T19:09:21;102630.66;;;4.62;42.69
35553;BME280;21656;46.054;13.614;2023-02-10T19:11:47;102628.72;;;4.70;42.56
35553;BME280;21656;46.054;13.614;2023-02-10T19:14:14;102627.84;;;4.68;41.94
35553;BME280;21656;46.054;13.614;2023-02-10T19:16:39;102628.75;;;4.69;41.78
35553;BME280;21656;46.054;13.614;2023-02-10T19:19:05;102634.78;;;4.78;42.01
35553;BME280;21656;46.054;13.614;2023-02-10T19:21:32;102633.16;;;4.71;42.32
35553;BME280;21656;46.054;13.614;2023-02-10T19:23:57;102625.88;;;4.78;41.63
35553;BME280;21656;46.054;13.614;2023-02-10T19:26:23;102625.97;;;4.73;41.76
35553;BME280;21656;46.054;13.614;2023-02-10T19:28:49;102624.28;;;4.69;41.65
35553;BME280;21656;46.054;13.614;2023-02-10T19:31:15;102618.97;;;4.69;41.70
35553;BME280;21656;46.054;13.614;2023-02-10T19:33:43;102617.31;;;4.64;41.94
35553;BME280;21656;46.054;13.614;2023-02-10T19:36:13;102627.69;;;4.77;41.91
35553;BME280;21656;46.054;13.614;2023-02-10T19:38:39;102624.13;;;4.78;41.63
35553;BME280;21656;46.054;13.614;2023-02-10T19:41:12;102634.66;;;4.83;41.67
35553;BME280;21656;46.054;13.614;2023-02-10T19:43:40;102630.25;;;4.82;41.28
35553;BME280;21656;46.054;13.614;2023-02-10T19:46:06;102632.16;;;4.75;42.15
35553;BME280;21656;46.054;13.614;2023-02-10T19:48:33;102626.88;;;4.74;41.96
35553;BME280;21656;46.054;13.614;2023-02-10T19:51:14;102621.66;;;4.68;41.85
35553;BME280;21656;46.054;13.614;2023-02-10T19:53:40;102628.84;;;4.64;41.31
35553;BME280;21656;46.054;13.614;2023-02-10T19:56:06;102628.22;;;4.51;42.33
35553;BME280;21656;46.054;13.614;2023-02-10T19:58:33;102614.66;;;4.62;41.53
35553;BME280;21656;46.054;13.614;2023-02-10T20:00:59;102623.53;;;4.63;41.81
35553;BME280;21656;46.054;13.614;2023-02-10T20:03:26;102627.84;;;4.68;41.50
35553;BME280;21656;46.054;13.614;2023-02-10T20:05:52;102631.38;;;4.70;42.05
35553;BME280;21656;46.054;13.614;2023-02-10T20:08:17;102640.41;;;4.63;42.61
35553;BME280;21656;46.054;13.614;2023-02-10T20:10:48;102649.03;;;4.77;41.40
35553;BME280;21656;46.054;13.614;2023-02-10T20:13:14;102645.75;;;4.65;42.38
35553;BME280;21656;46.054;13.614;2023-02-10T20:15:39;102645.03;;;4.55;42.51
35553;BME280;21656;46.054;13.614;2023-02-10T20:18:05;102669.13;;;4.53;42.52
35553;BME280;21656;46.054;13.614;2023-02-10T20:20:30;102654.97;;;4.48;42.48
35553;BME280;21656;46.054;13.614;2023-02-10T20:22:56;102658.38;;;4.56;42.26
35553;BME280;21656;46.054;13.614;2023-02-10T20:25:21;102662.97;;;4.48;42.29
35553;BME280;21656;46.054;13.614;2023-02-10T20:27:46;102665.69;;;4.47;42.16
35553;BME280;21656;46.054;13.614;2023-02-10T20:30:12;102670.19;;;4.43;42.57
35553;BME280;21656;46.054;13.614;2023-02-10T20:32:37;102659.59;;;4.39;43.32
35553;BME280;21656;46.054;13.614;2023-02-10T20:35:03;102679.16;;;4.41;43.02
35553;BME280;21656;46.054;13.614;2023-02-10T20:37:28;102668.47;;;4.41;42.89
35553;BME280;21656;46.054;13.614;2023-02-10T20:39:54;102664.09;;;4.35;43.17
35553;BME280;21656;46.054;13.614;2023-02-10T20:42:19;102669.56;;;4.30;43.34
35553;BME280;21656;46.054;13.614;2023-02-10T20:44:46;102667.56;;;4.40;42.78
35553;BME280;21656;46.054;13.614;2023-02-10T20:47:11;102661.25;;;4.46;42.70
35553;BME280;21656;46.054;13.614;2023-02-10T20:49:37;102667.53;;;4.43;42.44
35553;BME280;21656;46.054;13.614;2023-02-10T20:52:02;102672.91;;;4.40;43.35
35553;BME280;21656;46.054;13.614;2023-02-10T20:54:28;102673.97;;;4.31;43.11
35553;BME280;21656;46.054;13.614;2023-02-10T20:56:53;102679.47;;;4.22;43.10
35553;BME280;21656;46.054;13.614;2023-02-10T20:59:19;102670.31;;;4.37;43.04
35553;BME280;21656;46.054;13.614;2023-02-10T21:01:44;102666.75;;;4.37;43.42
35553;BME280;21656;46.054;13.614;2023-02-10T21:04:11;102671.13;;;4.41;43.30
35553;BME280;21656;46.054;13.614;2023-02-10T21:06:37;102680.03;;;4.41;42.67
35553;BME280;21656;46.054;13.614;2023-02-10T21:09:02;102672.75;;;4.49;43.23
35553;BME280;21656;46.054;13.614;2023-02-10T21:11:28;102678.84;;;4.56;43.00
35553;BME280;21656;46.054;13.614;2023-02-10T21:13:54;102677.16;;;4.50;43.12
35553;BME280;21656;46.054;13.614;2023-02-10T21:16:20;102688.75;;;4.48;43.18
35553;BME280;21656;46.054;13.614;2023-02-10T21:18:48;102681.81;;;4.41;43.11
35553;BME280;21656;46.054;13.614;2023-02-10T21:21:14;102680.97;;;4.37;43.48
35553;BME280;21656;46.054;13.614;2023-02-10T21:23:40;102680.19;;;4.32;43.41
35553;BME280;21656;46.054;13.614;2023-02-10T21:26:06;102672.47;;;4.15;44.22
35553;BME280;21656;46.054;13.614;2023-02-10T21:28:33;102676.25;;;4.03;45.20
35553;BME280;21656;46.054;13.614;2023-02-10T21:30:59;102670.94;;;4.03;44.10
35553;BME280;21656;46.054;13.614;2023-02-10T21:33:25;102687.81;;;4.04;44.37
35553;BME280;21656;46.054;13.614;2023-02-10T21:35:53;102679.00;;;3.99;44.54
35553;BME280;21656;46.054;13.614;2023-02-10T21:38:20;102672.75;;;4.01;44.65
35553;BME280;21656;46.054;13.614;2023-02-10T21:40:46;102671.75;;;4.07;43.96
35553;BME280;21656;46.054;13.614;2023-02-10T21:43:11;102683.22;;;4.12;43.52
35553;BME280;21656;46.054;13.614;2023-02-10T21:45:37;102687.53;;;4.18;43.97
35553;BME280;21656;46.054;13.614;2023-02-10T21:48:04;102685.88;;;4.12;43.75
